Terminal Aerodrome Forecast
Issued by NWS Atlanta, GA

Home | Current Version | Previous Version | Text Only | Print | Product List | Glossary On
Versions: 1 2 3 4 5 6 7 8 9 10 11 12 13 14 15 16 17 18 19 20 21
000
FTUS42 KFFC 270522
TAFMCN
TAF
KMCN 270522Z 2706/2806 24006KT P6SM -SHRA SCT050
     FM270800 23007KT 4SM -SHRA BR OVC025
      TEMPO 2708/2710 5SM -TSRA BR BKN015CB
     FM271000 29010G18KT P6SM OVC008
     FM271400 32011KT P6SM OVC015
     FM271700 33013G23KT P6SM SCT025 BKN050
     FM272100 32012G22KT P6SM SCT030
     FM280000 32010KT P6SM BKN050=

USA.gov is the U.S. government's official web portal to all federal, state and local government web resources and services.